createdAt,value
2019-04-03T00:00:06.032Z,988
2019-04-03T00:05:08.158Z,987.93
2019-04-03T00:10:10.927Z,987.86
2019-04-03T00:15:06.297Z,987.67
2019-04-03T00:20:06.501Z,987.53
2019-04-03T00:25:07.793Z,987.75
2019-04-03T00:30:03.904Z,987.73
2019-04-03T00:35:06.981Z,987.73
2019-04-03T00:40:07.631Z,987.69
2019-04-03T00:45:05.080Z,987.8
2019-04-03T00:50:05.908Z,987.71
2019-04-03T00:55:05.055Z,987.75
2019-04-03T01:00:06.538Z,987.77
2019-04-03T01:05:11.855Z,987.72
2019-04-03T01:10:05.185Z,987.79
2019-04-03T01:15:03.317Z,987.94
2019-04-03T01:20:07.160Z,987.97
2019-04-03T01:25:14.551Z,987.91
2019-04-03T01:30:05.323Z,987.86
2019-04-03T01:35:10.011Z,987.78
2019-04-03T01:40:09.497Z,987.69
2019-04-03T01:45:03.748Z,987.65
2019-04-03T01:50:10.286Z,987.69
2019-04-03T01:55:07.648Z,987.66
2019-04-03T02:00:03.824Z,987.53
2019-04-03T02:05:06.654Z,987.54
2019-04-03T02:10:06.220Z,987.57
2019-04-03T02:15:03.804Z,987.58
2019-04-03T02:20:07.647Z,987.47
2019-04-03T02:25:09.968Z,987.33
2019-04-03T02:30:06.417Z,987.33
2019-04-03T02:35:14.756Z,987.24
2019-04-03T02:40:14.862Z,987.25
2019-04-03T02:45:05.674Z,987.28
2019-04-03T02:50:15.625Z,987.33
2019-04-03T02:55:12.488Z,987.29
2019-04-03T03:00:10.748Z,987.27
2019-04-03T03:05:13.527Z,987.27
2019-04-03T03:10:10.354Z,987.14
2019-04-03T03:15:12.351Z,987.12
2019-04-03T03:20:13.471Z,987.1
2019-04-03T03:25:08.298Z,987.07
2019-04-03T03:30:38.227Z,987.02
2019-04-03T03:35:28.885Z,986.93
2019-04-03T03:40:07.125Z,987
2019-04-03T03:45:03.435Z,986.94
2019-04-03T03:50:06.523Z,986.95
2019-04-03T03:55:08.091Z,986.84
2019-04-03T04:00:03.442Z,986.86
2019-04-03T04:05:11.706Z,986.83
2019-04-03T04:10:03.579Z,986.72
2019-04-03T04:15:04.358Z,986.74
2019-04-03T04:20:08.651Z,986.71
2019-04-03T04:25:08.672Z,986.79
2019-04-03T04:30:03.231Z,986.72
2019-04-03T04:35:11.130Z,986.77
2019-04-03T04:40:08.299Z,986.82
2019-04-03T04:45:02.889Z,986.83
2019-04-03T04:50:09.092Z,986.71
2019-04-03T04:55:10.146Z,986.77
2019-04-03T05:00:03.222Z,986.74
2019-04-03T05:05:11.838Z,986.77
2019-04-03T05:10:07.545Z,986.74
2019-04-03T05:15:03.355Z,986.73
2019-04-03T05:20:04.255Z,986.73
2019-04-03T05:25:04.557Z,986.71
2019-04-03T05:30:06.386Z,986.68
2019-04-03T05:35:04.446Z,986.71
2019-04-03T05:40:04.488Z,986.77
2019-04-03T05:45:05.992Z,986.86
2019-04-03T05:50:05.283Z,986.92
2019-04-03T05:55:04.315Z,986.99
2019-04-03T06:00:07.628Z,986.98
2019-04-03T06:05:08.391Z,986.94
2019-04-03T06:10:06.811Z,987.07
2019-04-03T06:15:05.163Z,987.17
2019-04-03T06:20:11.297Z,987.22
2019-04-03T06:25:13.950Z,987.2
2019-04-03T06:30:03.705Z,987.19
2019-04-03T06:35:08.832Z,987.23
2019-04-03T06:40:09.993Z,987.15
2019-04-03T06:45:04.887Z,987.14
2019-04-03T06:50:13.281Z,987.08
2019-04-03T06:55:07.979Z,987.07
2019-04-03T07:00:04.741Z,986.92
2019-04-03T07:05:10.885Z,986.77
2019-04-03T07:10:25.840Z,987.15
2019-04-03T07:15:04.427Z,987.05
2019-04-03T07:20:20.790Z,986.88
2019-04-03T07:25:07.574Z,987.02
2019-04-03T07:30:04.222Z,987.01
2019-04-03T07:35:12.348Z,987.02
2019-04-03T07:40:07.308Z,986.92
2019-04-03T07:45:04.792Z,986.94
2019-04-03T07:50:06.852Z,986.83
2019-04-03T07:55:07.969Z,986.85
2019-04-03T08:00:07.900Z,986.92
2019-04-03T08:05:07.097Z,987.05
2019-04-03T08:10:06.650Z,987.09
2019-04-03T08:15:13.910Z,986.75
2019-04-03T08:20:07.148Z,986.91
2019-04-03T08:25:12.411Z,987.07
2019-04-03T08:30:08.709Z,987.06
2019-04-03T08:35:23.036Z,987.03
2019-04-03T08:40:08.634Z,987.13
2019-04-03T08:45:07.559Z,987.08
2019-04-03T08:50:07.622Z,987.28
2019-04-03T08:55:07.382Z,987.29
2019-04-03T09:00:03.115Z,987.33
2019-04-03T09:05:14.552Z,987.4
2019-04-03T09:10:03.623Z,987.46
2019-04-03T09:15:12.449Z,987.47
2019-04-03T09:20:13.852Z,987.48
2019-04-03T09:25:13.916Z,987.4
2019-04-03T09:30:16.243Z,987.21
2019-04-03T09:35:09.372Z,987.35
2019-04-03T09:40:10.395Z,987.26
2019-04-03T09:45:06.262Z,987.14
2019-04-03T09:50:08.731Z,987.03
2019-04-03T09:55:04.573Z,987.06
2019-04-03T10:00:04.463Z,987.01
2019-04-03T10:05:04.710Z,986.98
2019-04-03T10:10:04.103Z,987.05
2019-04-03T10:15:01.769Z,987.1
2019-04-03T10:20:04.583Z,987.01
2019-04-03T10:25:07.719Z,986.97
2019-04-03T10:30:05.329Z,986.91
2019-04-03T10:35:09.437Z,986.8
2019-04-03T10:40:10.343Z,986.69
2019-04-03T10:45:04.162Z,986.64
2019-04-03T10:50:08.441Z,986.61
2019-04-03T10:55:09.649Z,986.42
2019-04-03T11:00:04.555Z,986.38
2019-04-03T11:05:10.253Z,986.32
2019-04-03T11:10:09.316Z,986.51
2019-04-03T11:15:04.021Z,986.52
2019-04-03T11:20:11.121Z,986.45
2019-04-03T11:25:08.386Z,986.48
2019-04-03T11:30:04.226Z,986.35
2019-04-03T11:35:07.450Z,986.22
2019-04-03T11:40:08.695Z,986.02
2019-04-03T11:45:06.151Z,986.03
2019-04-03T11:50:07.877Z,985.87
2019-04-03T11:55:11.005Z,985.99
2019-04-03T12:00:04.500Z,986.02
2019-04-03T12:05:07.205Z,986.15
2019-04-03T12:10:12.599Z,986.22
2019-04-03T12:15:04.776Z,986.24
2019-04-03T12:20:09.577Z,986.16
2019-04-03T12:25:07.428Z,986.14
2019-04-03T12:30:04.290Z,986.03
2019-04-03T12:35:10.674Z,986.03
2019-04-03T12:40:08.446Z,986.01
2019-04-03T12:45:04.448Z,986
2019-04-03T12:50:06.762Z,985.91
2019-04-03T12:55:07.598Z,985.77
2019-04-03T13:00:04.391Z,985.67
2019-04-03T13:05:08.881Z,985.62
2019-04-03T13:10:08.735Z,985.64
2019-04-03T13:15:08.395Z,985.62
2019-04-03T13:20:09.287Z,985.33
2019-04-03T13:25:08.775Z,985.31
2019-04-03T13:30:04.959Z,985.39
2019-04-03T13:35:09.165Z,985.21
2019-04-03T13:40:09.707Z,985.3
2019-04-03T13:45:03.888Z,985.4
2019-04-03T13:50:08.351Z,985.37
2019-04-03T13:55:09.173Z,985.38
2019-04-03T14:00:23.409Z,985.3
2019-04-03T14:05:07.665Z,985.1
2019-04-03T14:10:04.809Z,985.13
2019-04-03T14:15:06.776Z,985.11
2019-04-03T14:20:07.827Z,985.05
2019-04-03T14:25:27.384Z,985.16
2019-04-03T14:30:04.280Z,985.17
2019-04-03T14:35:53.188Z,985.31
2019-04-03T14:40:12.633Z,985.23
2019-04-03T14:45:03.639Z,985.11
2019-04-03T14:50:09.544Z,985.17
2019-04-03T14:55:23.464Z,985.17
2019-04-03T15:00:29.383Z,985.1
2019-04-03T15:05:10.995Z,985.09
2019-04-03T15:10:06.490Z,985.15
2019-04-03T15:15:03.734Z,985.29
2019-04-03T15:20:07.189Z,985.35
2019-04-03T15:25:08.630Z,985.42
2019-04-03T15:30:03.609Z,985.28
2019-04-03T15:35:06.740Z,985.33
2019-04-03T15:40:08.136Z,985.41
2019-04-03T15:45:03.340Z,985.2
2019-04-03T15:50:05.707Z,985.09
2019-04-03T15:55:07.803Z,985.04
2019-04-03T16:00:04.553Z,985.07
2019-04-03T16:05:07.618Z,984.99
2019-04-03T16:10:05.074Z,984.92
2019-04-03T16:15:05.387Z,984.92
2019-04-03T16:20:05.983Z,984.84
2019-04-03T16:25:08.452Z,984.78
2019-04-03T16:30:07.454Z,984.62
2019-04-03T16:35:14.332Z,984.62
2019-04-03T16:40:09.209Z,984.69
2019-04-03T16:45:09.358Z,984.8
2019-04-03T16:50:09.912Z,984.95
2019-04-03T16:55:08.995Z,984.88
2019-04-03T17:00:08.932Z,984.87
2019-04-03T17:05:11.121Z,984.86
2019-04-03T17:10:04.698Z,984.73
2019-04-03T17:15:08.603Z,984.77
2019-04-03T17:20:08.089Z,984.55
2019-04-03T17:25:07.102Z,984.47
2019-04-03T17:30:04.510Z,984.49
2019-04-03T17:35:09.139Z,984.85
2019-04-03T17:40:08.861Z,984.89
2019-04-03T17:45:04.395Z,984.98
2019-04-03T17:50:08.957Z,985.08
2019-04-03T17:55:10.744Z,985.17
2019-04-03T18:00:04.395Z,985.12
2019-04-03T18:05:09.630Z,985.04
2019-04-03T18:10:13.207Z,985.22
2019-04-03T18:15:04.069Z,985.18
2019-04-03T18:20:06.690Z,985.09
2019-04-03T18:25:11.790Z,985.12
2019-04-03T18:30:04.495Z,985.23
2019-04-03T18:35:09.904Z,985.22
2019-04-03T18:40:15.236Z,985.52
2019-04-03T18:45:04.255Z,985.51
2019-04-03T18:50:10.531Z,985.45
2019-04-03T18:55:07.736Z,985.55
2019-04-03T19:00:04.404Z,985.46
2019-04-03T19:05:13.928Z,985.5
2019-04-03T19:10:09.012Z,985.34
2019-04-03T19:15:04.586Z,985.42
2019-04-03T19:20:12.591Z,985.42
2019-04-03T19:25:07.234Z,985.58
2019-04-03T19:30:03.333Z,985.73
2019-04-03T19:35:12.964Z,985.73
2019-04-03T19:40:10.750Z,985.77
2019-04-03T19:45:06.478Z,985.84
2019-04-03T19:50:11.309Z,985.83
2019-04-03T19:55:12.187Z,985.72
2019-04-03T20:00:08.954Z,985.55
2019-04-03T20:05:14.400Z,985.48
2019-04-03T20:10:13.556Z,985.48
2019-04-03T20:15:10.128Z,985.39
2019-04-03T20:20:10.705Z,985.39
2019-04-03T20:25:09.838Z,985.42
2019-04-03T20:30:07.366Z,985.58
2019-04-03T20:35:08.299Z,985.59
2019-04-03T20:40:08.570Z,985.51
2019-04-03T20:45:11.827Z,985.52
2019-04-03T20:50:12.764Z,985.46
2019-04-03T20:55:14.298Z,985.29
2019-04-03T21:00:19.119Z,985.02
2019-04-03T21:05:18.876Z,984.97
2019-04-03T21:10:15.807Z,985.02
2019-04-03T21:15:14.598Z,985.12
2019-04-03T21:20:10.257Z,984.99
2019-04-03T21:25:12.056Z,985.18
2019-04-03T21:30:11.381Z,985.09
2019-04-03T21:35:13.010Z,985.14
2019-04-03T21:40:15.903Z,985.32
2019-04-03T21:45:15.922Z,985.3
2019-04-03T21:50:13.673Z,985.08
2019-04-03T21:55:14.665Z,985.12
2019-04-03T22:00:14.322Z,985.27
2019-04-03T22:05:14.745Z,985.48
2019-04-03T22:10:09.398Z,985.47
2019-04-03T22:15:09.484Z,985.23
2019-04-03T22:20:08.966Z,985.28
2019-04-03T22:25:09.588Z,985.3
2019-04-03T22:30:08.265Z,985.39
2019-04-03T22:35:08.385Z,985.26
2019-04-03T22:40:17.856Z,985.18
2019-04-03T22:45:12.218Z,985.13
2019-04-03T22:50:12.138Z,985.12
2019-04-03T22:55:14.906Z,985.12
2019-04-03T23:00:14.630Z,985.06
2019-04-03T23:05:17.731Z,985.13
2019-04-03T23:10:02.059Z,985.13
2019-04-03T23:15:23.753Z,984.74
2019-04-03T23:20:22.951Z,984.7
2019-04-03T23:25:14.231Z,984.68
2019-04-03T23:30:10.827Z,984.46
2019-04-03T23:35:14.779Z,984.4
2019-04-03T23:40:17.475Z,984.52
2019-04-03T23:45:15.434Z,984.46
2019-04-03T23:50:12.846Z,984.55
2019-04-03T23:55:12.990Z,984.49
